Time;durP1;ratioP1;P1;durP2;ratioP2;P2;SDS_P1;SDS_P2;PMS_P1;PMS_P2;Temp;Humidity;BMP_temperature;BMP_pressure;BME280_temperature;BME280_humidity;BME280_pressure;Samples;Min_cycle;Max_cycle;Signal;HPM_P1;HPM_P2
2023/04/27 00:01:32;;;;;;;11.48;5.07;;;15.90;75.80;;;;;;5012723;28;20041;-72
2023/04/27 00:03:58;;;;;;;10.45;4.47;;;15.80;75.50;;;;;;4994852;28;20049;-74
2023/04/27 00:06:25;;;;;;;9.23;4.40;;;15.80;75.30;;;;;;5012564;28;20065;-72
2023/04/27 00:08:51;;;;;;;8.50;4.53;;;15.80;74.80;;;;;;5012217;28;20030;-73
2023/04/27 00:11:16;;;;;;;8.25;4.20;;;15.80;74.50;;;;;;5012589;28;20386;-73
2023/04/27 00:13:42;;;;;;;8.27;4.32;;;15.80;74.20;;;;;;5012817;28;20045;-73
2023/04/27 00:16:08;;;;;;;7.72;4.07;;;15.90;73.80;;;;;;5016572;28;20037;-73
2023/04/27 00:18:33;;;;;;;7.93;4.00;;;15.90;73.60;;;;;;4996757;28;20244;-72
2023/04/27 00:20:59;;;;;;;9.02;4.28;;;15.90;73.20;;;;;;5015648;28;20434;-71
2023/04/27 00:23:25;;;;;;;10.95;4.40;;;15.90;72.80;;;;;;5016068;28;20050;-73
2023/04/27 00:25:51;;;;;;;10.55;4.28;;;15.90;71.60;;;;;;5015979;28;20057;-72
2023/04/27 00:28:17;;;;;;;10.75;4.97;;;15.80;70.90;;;;;;5015877;28;20073;-74
2023/04/27 00:30:43;;;;;;;9.30;4.70;;;15.80;70.60;;;;;;5016096;28;20038;-73
2023/04/27 00:33:09;;;;;;;9.75;4.20;;;15.70;69.80;;;;;;5015890;28;20069;-74
2023/04/27 00:35:35;;;;;;;10.82;4.97;;;15.70;69.50;;;;;;5015928;28;20062;-73
2023/04/27 00:38:01;;;;;;;8.45;5.07;;;15.70;69.50;;;;;;5016232;28;20067;-74
2023/04/27 00:40:26;;;;;;;9.15;4.90;;;15.70;69.20;;;;;;5015897;28;20407;-73
2023/04/27 00:42:52;;;;;;;10.10;4.93;;;15.60;68.80;;;;;;5016616;28;20037;-74
2023/04/27 00:45:18;;;;;;;8.55;4.85;;;15.60;68.70;;;;;;5015749;28;20053;-73
2023/04/27 00:47:44;;;;;;;11.85;5.10;;;15.60;68.60;;;;;;5015769;28;20041;-74
2023/04/27 00:50:11;;;;;;;8.85;4.90;;;15.60;68.50;;;;;;4998060;28;20041;-74
2023/04/27 00:52:37;;;;;;;9.55;4.85;;;15.60;68.40;;;;;;5015690;28;20102;-74
2023/04/27 00:55:04;;;;;;;9.98;5.45;;;15.60;68.50;;;;;;5015939;28;20030;-74
2023/04/27 00:57:30;;;;;;;9.65;4.78;;;15.50;69.10;;;;;;5015683;28;20164;-72
2023/04/27 00:59:58;;;;;;;9.25;4.60;;;15.60;68.20;;;;;;5015517;28;20030;-74
2023/04/27 01:02:25;;;;;;;8.20;3.50;;;15.60;68.10;;;;;;5015241;28;20037;-73
2023/04/27 01:04:52;;;;;;;9.60;4.10;;;15.60;68.10;;;;;;5015005;28;20047;-73
2023/04/27 01:07:17;;;;;;;10.73;4.90;;;15.60;68.00;;;;;;5015281;28;20395;-74
2023/04/27 01:09:43;;;;;;;11.25;4.35;;;15.60;67.90;;;;;;5015035;28;20030;-74
2023/04/27 01:12:09;;;;;;;9.43;4.07;;;15.60;68.50;;;;;;5015416;28;20036;-72
2023/04/27 01:14:38;;;;;;;8.68;4.45;;;15.60;67.70;;;;;;4997725;28;20054;-72
2023/04/27 01:17:03;;;;;;;8.63;4.40;;;15.60;67.60;;;;;;5015130;28;20029;-73
2023/04/27 01:19:29;;;;;;;8.02;4.45;;;15.60;67.60;;;;;;5015409;28;20034;-74
2023/04/27 01:21:54;;;;;;;8.82;4.63;;;15.60;67.50;;;;;;5015054;28;20033;-73
2023/04/27 01:24:20;;;;;;;9.88;4.50;;;15.60;67.70;;;;;;5014567;28;20050;-73
2023/04/27 01:26:46;;;;;;;10.57;4.43;;;15.50;67.00;;;;;;5014487;28;20506;-74
2023/04/27 01:29:12;;;;;;;8.43;4.35;;;15.50;66.80;;;;;;5014584;28;20049;-74
2023/04/27 01:31:38;;;;;;;9.55;4.55;;;15.40;66.20;;;;;;4997295;28;20053;-72
2023/04/27 01:34:04;;;;;;;9.27;4.85;;;15.50;66.00;;;;;;4997004;28;20041;-72
2023/04/27 01:36:31;;;;;;;10.63;5.15;;;15.50;65.70;;;;;;5014779;28;20030;-73
2023/04/27 01:38:56;;;;;;;9.63;5.15;;;15.40;65.00;;;;;;4997164;28;20044;-73
2023/04/27 01:41:22;;;;;;;9.35;5.22;;;15.40;65.20;;;;;;5014733;28;20038;-72
2023/04/27 01:43:48;;;;;;;10.48;5.25;;;15.30;64.80;;;;;;5014795;28;20046;-74
2023/04/27 01:46:14;;;;;;;11.77;5.45;;;15.30;64.70;;;;;;5014606;28;20109;-74
2023/04/27 01:48:40;;;;;;;8.45;5.00;;;15.20;64.80;;;;;;5014204;28;20033;-74
2023/04/27 01:51:06;;;;;;;12.93;6.03;;;15.20;65.00;;;;;;5014381;28;20033;-73
2023/04/27 01:53:32;;;;;;;9.02;5.97;;;15.10;65.00;;;;;;5014630;28;20381;-74
2023/04/27 01:55:58;;;;;;;11.93;6.00;;;15.10;64.90;;;;;;5014573;28;20040;-72
2023/04/27 01:58:24;;;;;;;12.80;6.20;;;15.10;64.90;;;;;;5014137;28;20030;-72
2023/04/27 02:00:50;;;;;;;10.88;5.40;;;15.10;64.90;;;;;;5014398;28;20041;-72
2023/04/27 02:03:16;;;;;;;12.07;5.70;;;15.10;64.70;;;;;;5013947;28;20400;-73
2023/04/27 02:05:42;;;;;;;12.93;5.65;;;15.10;64.60;;;;;;5033035;28;20415;-74
2023/04/27 02:08:07;;;;;;;11.23;5.60;;;15.10;64.30;;;;;;5016243;28;20025;-73
2023/04/27 02:10:34;;;;;;;11.93;6.20;;;15.10;63.90;;;;;;5033797;28;20037;-74
2023/04/27 02:13:00;;;;;;;15.02;6.20;;;15.00;63.50;;;;;;5033802;28;20034;-73
2023/04/27 02:15:26;;;;;;;10.07;5.40;;;15.00;63.90;;;;;;5033816;28;20029;-72
2023/04/27 02:17:51;;;;;;;16.20;6.38;;;14.90;63.90;;;;;;5034263;28;20033;-74
2023/04/27 02:20:17;;;;;;;14.60;5.50;;;14.90;63.80;;;;;;5034724;28;20037;-74
2023/04/27 02:22:43;;;;;;;11.95;5.35;;;14.90;63.50;;;;;;5034387;28;20109;-72
2023/04/27 02:25:10;;;;;;;13.60;5.20;;;14.80;63.10;;;;;;5033546;28;20120;-73
2023/04/27 02:27:37;;;;;;;10.40;5.60;;;14.80;62.80;;;;;;5016024;28;20037;-73
2023/04/27 02:30:04;;;;;;;10.93;5.10;;;14.80;62.60;;;;;;5033361;28;20046;-73
2023/04/27 02:32:30;;;;;;;10.07;4.95;;;14.70;62.30;;;;;;5033437;28;20037;-73
2023/04/27 02:34:56;;;;;;;10.82;5.40;;;14.70;62.10;;;;;;5033441;28;20029;-74
2023/04/27 02:37:22;;;;;;;10.80;4.70;;;14.70;61.80;;;;;;5032570;28;20033;-74
2023/04/27 02:39:47;;;;;;;8.60;4.55;;;14.70;61.70;;;;;;5033267;28;20084;-73
2023/04/27 02:42:13;;;;;;;11.80;4.90;;;14.70;61.50;;;;;;5033397;28;20109;-73
2023/04/27 02:44:39;;;;;;;14.13;5.05;;;14.70;61.20;;;;;;5015657;28;20055;-73
2023/04/27 02:47:05;;;;;;;13.55;5.60;;;14.70;61.50;;;;;;5033245;28;20120;-73
2023/04/27 02:49:31;;;;;;;9.85;4.57;;;14.60;61.20;;;;;;5033036;28;20458;-73
2023/04/27 02:51:56;;;;;;;9.00;5.15;;;14.60;61.30;;;;;;5033208;28;20399;-72
2023/04/27 02:54:22;;;;;;;11.07;5.50;;;14.50;61.40;;;;;;5032904;28;20033;-74
2023/04/27 02:56:48;;;;;;;11.43;5.35;;;14.50;61.70;;;;;;5032927;28;20494;-73
2023/04/27 02:59:13;;;;;;;11.55;5.68;;;14.40;61.50;;;;;;5033980;28;20041;-72
2023/04/27 03:01:39;;;;;;;13.55;5.47;;;14.30;61.70;;;;;;5035176;28;20041;-72
2023/04/27 03:04:05;;;;;;;9.32;5.07;;;14.30;62.00;;;;;;5032998;28;20104;-73
2023/04/27 03:06:30;;;;;;;11.40;5.53;;;14.30;62.10;;;;;;5032847;28;20033;-73
2023/04/27 03:08:56;;;;;;;11.30;5.38;;;14.20;62.10;;;;;;5015121;28;20099;-73
2023/04/27 03:11:22;;;;;;;12.70;6.10;;;14.20;62.10;;;;;;5014984;28;20033;-73
2023/04/27 03:13:48;;;;;;;12.40;5.50;;;14.20;62.30;;;;;;5032653;28;20557;-72
2023/04/27 03:16:13;;;;;;;13.88;6.55;;;14.20;62.00;;;;;;5032487;28;20450;-74
2023/04/27 03:18:39;;;;;;;12.48;5.20;;;14.20;62.00;;;;;;5032660;28;20108;-73
2023/04/27 03:21:10;;;;;;;11.65;4.60;;;14.10;62.20;;;;;;5032827;28;20084;-72
2023/04/27 03:23:36;;;;;;;10.93;5.30;;;14.10;62.10;;;;;;5014521;28;20515;-72
2023/04/27 03:26:08;;;;;;;15.13;5.63;;;14.10;62.10;;;;;;5014867;28;20132;-71
2023/04/27 03:28:34;;;;;;;12.55;5.45;;;14.10;62.00;;;;;;5032447;28;20049;-73
2023/04/27 03:31:00;;;;;;;14.32;6.03;;;14.10;62.20;;;;;;5033747;28;20383;-73
2023/04/27 03:33:27;;;;;;;20.92;5.57;;;14.10;62.20;;;;;;5032485;28;20028;-74
2023/04/27 03:35:56;;;;;;;15.32;6.88;;;14.10;62.00;;;;;;5032996;28;20526;-73
2023/04/27 03:38:24;;;;;;;11.52;5.20;;;14.10;61.80;;;;;;5032540;28;20372;-72
2023/04/27 03:40:50;;;;;;;14.18;5.50;;;14.10;62.10;;;;;;5032757;28;20470;-73
2023/04/27 03:43:15;;;;;;;12.07;5.97;;;14.20;62.20;;;;;;5032145;28;20021;-73
2023/04/27 03:45:41;;;;;;;11.27;5.53;;;14.20;62.10;;;;;;5032373;28;20048;-73
2023/04/27 03:48:07;;;;;;;11.88;5.65;;;14.20;62.30;;;;;;5033483;28;20083;-72
2023/04/27 03:50:33;;;;;;;9.98;5.28;;;14.20;62.40;;;;;;5037227;28;20046;-74
2023/04/27 03:52:59;;;;;;;13.38;5.57;;;14.10;62.50;;;;;;5037052;28;20034;-73
2023/04/27 03:55:24;;;;;;;10.88;4.40;;;14.00;62.60;;;;;;5036548;28;20034;-73
2023/04/27 03:57:50;;;;;;;9.27;4.90;;;14.00;62.90;;;;;;5036810;28;20044;-73
2023/04/27 04:00:17;;;;;;;7.72;4.15;;;14.00;62.90;;;;;;5036931;28;20037;-74
2023/04/27 04:02:43;;;;;;;9.07;4.72;;;13.90;62.50;;;;;;5036600;28;20038;-73
2023/04/27 04:05:10;;;;;;;8.90;3.95;;;13.90;62.50;;;;;;5036093;28;20100;-71
2023/04/27 04:07:36;;;;;;;9.75;3.67;;;13.80;62.30;;;;;;5036150;28;20033;-74
2023/04/27 04:10:03;;;;;;;7.55;3.55;;;13.80;62.60;;;;;;5036151;28;20117;-73
2023/04/27 04:12:29;;;;;;;7.70;3.08;;;13.70;62.30;;;;;;5036083;28;20390;-73
2023/04/27 04:14:55;;;;;;;8.30;2.90;;;13.70;62.30;;;;;;5021868;28;20038;-73
2023/04/27 04:17:21;;;;;;;8.25;3.22;;;13.60;62.80;;;;;;5016456;28;20033;-72
2023/04/27 04:19:46;;;;;;;5.40;2.83;;;13.70;62.90;;;;;;5016418;28;20125;-72
2023/04/27 04:22:12;;;;;;;5.68;3.10;;;13.70;62.80;;;;;;4998397;28;20532;-72
2023/04/27 04:24:39;;;;;;;13.15;3.20;;;13.70;62.80;;;;;;5015928;28;20100;-71
2023/04/27 04:27:05;;;;;;;9.13;3.03;;;13.70;63.00;;;;;;5016095;28;20038;-73
2023/04/27 04:29:31;;;;;;;6.82;2.85;;;13.70;63.00;;;;;;4998237;28;20061;-72
2023/04/27 04:31:57;;;;;;;9.13;3.20;;;13.60;63.00;;;;;;4998338;28;20030;-74
2023/04/27 04:34:23;;;;;;;9.35;3.00;;;13.70;62.70;;;;;;5015759;28;20034;-73
2023/04/27 04:36:52;;;;;;;7.00;3.30;;;13.70;63.20;;;;;;5015939;28;20384;-73
2023/04/27 04:39:19;;;;;;;9.45;3.10;;;13.80;62.90;;;;;;5015594;28;20510;-73
2023/04/27 04:41:45;;;;;;;8.18;3.20;;;13.90;63.00;;;;;;4998133;28;20034;-74
2023/04/27 04:44:11;;;;;;;6.00;3.15;;;13.90;62.90;;;;;;5015692;28;20507;-73
2023/04/27 04:46:37;;;;;;;7.75;3.00;;;13.90;63.00;;;;;;5015590;28;20026;-73
2023/04/27 04:49:03;;;;;;;6.22;3.28;;;14.00;63.50;;;;;;5015836;28;20041;-73
2023/04/27 04:51:29;;;;;;;7.50;3.28;;;14.00;63.50;;;;;;5015784;28;20041;-73
2023/04/27 04:53:55;;;;;;;7.85;3.60;;;14.00;63.50;;;;;;4997959;28;20408;-73
2023/04/27 04:56:21;;;;;;;6.60;3.00;;;14.00;63.50;;;;;;5015288;28;20026;-74
2023/04/27 04:58:47;;;;;;;8.77;3.78;;;14.00;64.20;;;;;;5015318;28;20114;-73
2023/04/27 05:01:12;;;;;;;10.73;3.72;;;13.90;63.60;;;;;;4980705;28;20124;-73
2023/04/27 05:03:38;;;;;;;12.82;4.55;;;13.90;63.70;;;;;;5015439;28;20046;-73
2023/04/27 05:06:04;;;;;;;7.63;3.35;;;14.00;63.70;;;;;;5015326;28;20088;-72
2023/04/27 05:08:30;;;;;;;7.20;3.72;;;14.00;64.00;;;;;;5015439;28;20114;-73
2023/04/27 05:10:55;;;;;;;7.82;3.35;;;13.90;63.90;;;;;;5015316;28;20034;-74
2023/04/27 05:13:23;;;;;;;7.75;3.50;;;13.90;63.70;;;;;;4997606;28;20065;-73
2023/04/27 05:15:49;;;;;;;6.82;3.42;;;13.90;63.80;;;;;;5016356;28;20052;-74
2023/04/27 05:18:15;;;;;;;6.82;3.40;;;13.90;63.50;;;;;;4997611;28;20038;-74
2023/04/27 05:20:41;;;;;;;6.43;3.30;;;14.00;63.50;;;;;;5015711;28;20511;-73
2023/04/27 05:23:06;;;;;;;10.55;3.78;;;14.10;63.30;;;;;;5014854;28;20046;-74
2023/04/27 05:25:33;;;;;;;8.80;3.20;;;14.10;63.20;;;;;;4997683;28;20073;-74
2023/04/27 05:27:59;;;;;;;8.65;3.38;;;14.10;62.90;;;;;;5015323;28;20491;-73
2023/04/27 05:30:26;;;;;;;8.52;3.08;;;14.20;62.90;;;;;;4997394;28;20054;-75
2023/04/27 05:32:51;;;;;;;9.15;3.22;;;14.20;62.60;;;;;;4997042;28;20432;-73
2023/04/27 05:35:17;;;;;;;11.98;3.83;;;14.30;62.80;;;;;;4997196;28;20037;-73
2023/04/27 05:37:43;;;;;;;6.50;3.30;;;14.40;62.50;;;;;;5014301;28;20038;-73
2023/04/27 05:40:09;;;;;;;8.45;3.42;;;14.50;62.40;;;;;;5014824;28;20030;-71
2023/04/27 05:42:35;;;;;;;7.95;3.10;;;14.70;62.30;;;;;;5014353;28;20407;-73
2023/04/27 05:45:02;;;;;;;6.32;3.35;;;14.90;61.70;;;;;;5014514;28;20041;-74
2023/04/27 05:47:28;;;;;;;12.35;3.50;;;15.10;61.50;;;;;;5014454;28;20086;-75
2023/04/27 05:49:54;;;;;;;7.32;3.22;;;15.30;61.00;;;;;;4996858;28;20046;-69
2023/04/27 05:52:20;;;;;;;9.75;3.78;;;15.50;61.20;;;;;;5014300;28;20245;-72
2023/04/27 05:54:49;;;;;;;8.77;3.47;;;15.70;60.70;;;;;;5014248;28;20470;-73
2023/04/27 05:57:16;;;;;;;7.78;3.65;;;15.90;60.50;;;;;;5014265;28;20053;-70
2023/04/27 05:59:42;;;;;;;8.50;3.08;;;16.10;59.80;;;;;;5014523;28;20030;-72
2023/04/27 06:02:08;;;;;;;6.22;3.20;;;16.20;59.60;;;;;;5014291;28;20037;-72
2023/04/27 06:04:35;;;;;;;7.90;2.70;;;16.40;59.10;;;;;;4996154;28;20042;-74
2023/04/27 06:07:02;;;;;;;8.50;2.60;;;16.60;58.90;;;;;;5013744;28;20491;-74
2023/04/27 06:09:29;;;;;;;10.57;2.85;;;16.80;58.00;;;;;;5014003;28;20037;-71
2023/04/27 06:11:57;;;;;;;6.60;3.10;;;16.90;57.30;;;;;;5013913;28;20034;-73
2023/04/27 06:14:23;;;;;;;10.35;3.70;;;17.10;57.20;;;;;;5014619;28;20088;-73
2023/04/27 06:16:49;;;;;;;9.35;3.10;;;17.50;57.40;;;;;;5014840;28;20109;-72
2023/04/27 06:19:14;;;;;;;10.73;3.72;;;17.60;56.50;;;;;;5014019;28;20378;-72
2023/04/27 06:21:40;;;;;;;8.50;3.10;;;17.70;56.90;;;;;;5014148;28;20483;-72
2023/04/27 06:24:06;;;;;;;9.15;3.22;;;17.80;56.00;;;;;;5013784;28;20488;-75
2023/04/27 06:26:32;;;;;;;9.27;3.30;;;17.90;56.10;;;;;;5013705;28;20061;-74
2023/04/27 06:28:58;;;;;;;8.52;3.63;;;17.90;56.00;;;;;;5013665;28;20918;-75
2023/04/27 06:31:25;;;;;;;11.52;3.00;;;18.10;56.10;;;;;;5013350;28;20044;-73
2023/04/27 06:33:50;;;;;;;12.82;3.80;;;18.30;56.10;;;;;;5013454;28;20060;-73
2023/04/27 06:36:16;;;;;;;8.35;3.50;;;18.50;55.80;;;;;;5013849;28;20464;-72
2023/04/27 06:38:42;;;;;;;10.45;3.47;;;18.60;55.50;;;;;;5013169;28;20038;-73
2023/04/27 06:41:07;;;;;;;10.48;3.88;;;18.70;55.50;;;;;;5013015;28;20091;-72
2023/04/27 06:43:33;;;;;;;9.40;3.75;;;18.80;55.30;;;;;;5013036;28;20049;-73
2023/04/27 06:45:59;;;;;;;10.50;3.78;;;18.90;55.30;;;;;;5012583;28;20395;-71
2023/04/27 06:48:25;;;;;;;8.25;3.38;;;19.10;55.30;;;;;;5013006;28;20026;-72
2023/04/27 06:50:50;;;;;;;13.68;3.67;;;19.30;55.30;;;;;;5013004;28;20030;-73
2023/04/27 06:53:16;;;;;;;6.90;3.50;;;19.50;55.00;;;;;;5012670;28;20045;-72
2023/04/27 06:55:42;;;;;;;10.23;3.75;;;19.50;54.70;;;;;;5012943;28;20399;-72
2023/04/27 06:58:08;;;;;;;9.07;4.22;;;19.50;54.80;;;;;;5012620;28;20168;-71
2023/04/27 07:00:34;;;;;;;11.98;3.78;;;19.50;55.00;;;;;;5012606;28;20030;-72
2023/04/27 07:02:59;;;;;;;8.25;3.47;;;19.50;55.20;;;;;;5012714;28;20558;-71
2023/04/27 07:05:26;;;;;;;10.50;3.30;;;19.60;55.20;;;;;;5012440;28;20049;-72
2023/04/27 07:07:52;;;;;;;9.82;3.90;;;19.80;55.10;;;;;;5012680;28;20045;-72
2023/04/27 07:10:17;;;;;;;11.88;3.50;;;19.80;54.70;;;;;;4994793;28;20045;-73
2023/04/27 07:12:44;;;;;;;9.77;3.63;;;19.80;54.60;;;;;;5012410;28;20033;-73
2023/04/27 07:15:10;;;;;;;6.55;2.92;;;20.00;54.90;;;;;;5013012;28;20487;-74
2023/04/27 07:17:36;;;;;;;8.75;3.30;;;20.00;54.90;;;;;;5012497;28;20113;-72
2023/04/27 07:20:05;;;;;;;8.02;2.95;;;20.00;55.10;;;;;;4995055;28;20042;-72
2023/04/27 07:22:32;;;;;;;9.05;3.55;;;20.10;55.90;;;;;;5012362;28;20092;-72
2023/04/27 07:24:57;;;;;;;14.70;3.25;;;20.20;55.80;;;;;;5012178;28;20169;-72
2023/04/27 07:27:25;;;;;;;8.18;3.40;;;20.10;55.70;;;;;;5011103;28;20061;-71
2023/04/27 07:29:51;;;;;;;9.63;3.50;;;19.90;55.80;;;;;;5012348;28;20053;-71
2023/04/27 07:32:17;;;;;;;14.98;3.33;;;20.00;56.10;;;;;;5012571;28;20387;-70
2023/04/27 07:34:43;;;;;;;12.10;3.08;;;19.90;56.00;;;;;;5012868;28;20084;-72
2023/04/27 07:37:09;;;;;;;11.73;3.90;;;19.90;56.20;;;;;;5012591;28;20038;-73
2023/04/27 07:39:35;;;;;;;10.35;4.00;;;20.00;55.90;;;;;;4994884;28;20074;-73
2023/04/27 07:42:02;;;;;;;11.10;3.03;;;20.20;56.10;;;;;;5012499;28;20137;-71
2023/04/27 07:44:27;;;;;;;10.60;3.05;;;20.30;55.70;;;;;;5012108;28;20049;-72
2023/04/27 07:46:54;;;;;;;8.07;2.95;;;20.40;55.60;;;;;;5012139;28;20345;-72
2023/04/27 07:49:20;;;;;;;9.07;3.20;;;20.40;55.50;;;;;;5012429;28;20026;-72
2023/04/27 07:51:45;;;;;;;10.45;3.10;;;20.50;55.50;;;;;;5012276;28;20034;-73
2023/04/27 07:54:11;;;;;;;13.77;3.63;;;20.60;55.30;;;;;;5012606;28;20137;-71
2023/04/27 07:56:41;;;;;;;13.93;4.63;;;20.60;55.20;;;;;;5012513;28;20120;-72
2023/04/27 07:59:06;;;;;;;14.32;3.55;;;20.70;55.30;;;;;;5012347;28;20060;-73
2023/04/27 08:01:32;;;;;;;11.45;3.78;;;20.60;55.30;;;;;;5012134;28;20484;-72
2023/04/27 08:03:58;;;;;;;8.55;3.03;;;20.60;55.30;;;;;;5012343;28;20073;-72
2023/04/27 08:06:23;;;;;;;7.07;2.92;;;20.60;55.20;;;;;;5012453;28;20034;-73
2023/04/27 08:08:49;;;;;;;7.75;3.10;;;20.60;55.10;;;;;;5012454;28;20065;-73
2023/04/27 08:11:15;;;;;;;12.05;3.20;;;20.60;55.20;;;;;;5012764;28;20037;-73
2023/04/27 08:13:40;;;;;;;8.45;2.58;;;20.60;55.00;;;;;;5011826;28;20451;-72
2023/04/27 08:16:06;;;;;;;7.53;2.97;;;20.50;55.20;;;;;;5011862;28;20034;-71
2023/04/27 08:18:32;;;;;;;8.77;2.60;;;20.40;55.50;;;;;;5011881;28;20061;-72
2023/04/27 08:20:57;;;;;;;11.65;2.88;;;20.40;55.70;;;;;;5011950;28;20045;-73
2023/04/27 08:23:27;;;;;;;8.02;2.95;;;20.40;55.90;;;;;;5011946;28;20445;-72
2023/04/27 08:25:53;;;;;;;7.10;2.42;;;20.40;56.50;;;;;;4994486;28;20125;-73
2023/04/27 08:28:18;;;;;;;6.07;2.50;;;20.40;56.50;;;;;;5012006;28;20520;-73
2023/04/27 08:30:44;;;;;;;7.03;2.30;;;20.40;56.20;;;;;;5011920;28;20034;-71
2023/04/27 08:33:10;;;;;;;7.72;3.00;;;20.40;56.20;;;;;;5011998;28;20113;-72
2023/04/27 08:35:36;;;;;;;10.25;3.30;;;20.40;56.70;;;;;;5013146;28;20077;-72
2023/04/27 08:38:02;;;;;;;7.82;2.90;;;20.40;56.60;;;;;;5015022;28;20026;-72
2023/04/27 08:40:28;;;;;;;10.23;3.05;;;20.40;56.50;;;;;;5015456;28;20042;-72
2023/04/27 08:42:56;;;;;;;10.02;3.22;;;20.40;56.30;;;;;;5015190;28;20026;-72
2023/04/27 08:45:23;;;;;;;8.77;2.70;;;20.40;56.60;;;;;;4997400;28;20053;-72
2023/04/27 08:47:49;;;;;;;8.82;3.00;;;20.40;56.50;;;;;;5015237;28;20313;-72
2023/04/27 08:50:15;;;;;;;8.30;2.97;;;20.40;56.10;;;;;;5014958;28;20041;-72
2023/04/27 08:52:46;;;;;;;6.93;2.55;;;20.40;56.20;;;;;;5015160;28;20044;-72
2023/04/27 08:55:12;;;;;;;6.68;3.10;;;20.40;55.70;;;;;;5015151;28;20034;-72
2023/04/27 08:57:37;;;;;;;8.85;2.90;;;20.40;56.00;;;;;;5014743;28;20084;-72
2023/04/27 09:00:22;;;;;;;6.55;2.65;;;20.40;55.30;;;;;;5016586;28;20040;-74
2023/04/27 09:02:48;;;;;;;7.75;2.58;;;20.40;55.20;;;;;;5004274;28;20041;-72
2023/04/27 09:05:21;;;;;;;10.23;2.28;;;20.40;54.60;;;;;;5016828;28;20033;-72
2023/04/27 09:08:01;;;;;;;9.10;2.80;;;20.40;54.40;;;;;;5024325;28;20033;-70
2023/04/27 09:10:30;;;;;;;9.55;2.45;;;20.50;54.30;;;;;;5014835;28;21097;-74
2023/04/27 09:12:59;;;;;;;7.07;2.15;;;20.50;54.00;;;;;;5014912;28;20595;-73
2023/04/27 09:15:29;;;;;;;7.47;2.60;;;20.50;53.80;;;;;;4997144;28;20030;-72
2023/04/27 09:17:55;;;;;;;10.57;2.75;;;20.50;53.40;;;;;;5014597;28;20101;-71
2023/04/27 09:20:21;;;;;;;5.15;2.38;;;20.60;54.20;;;;;;5027995;28;20025;-72
2023/04/27 09:22:50;;;;;;;67.53;9.00;;;20.70;54.00;;;;;;5034018;28;20120;-72
2023/04/27 09:25:26;;;;;;;9.63;2.80;;;20.70;54.10;;;;;;5034219;28;20041;-73
2023/04/27 09:27:52;;;;;;;6.93;2.40;;;20.80;53.60;;;;;;5034515;28;20033;-77
2023/04/27 09:30:18;;;;;;;45.85;7.13;;;20.80;53.20;;;;;;5014791;28;20045;-72
2023/04/27 09:33:02;;;;;;;21.58;4.70;;;20.80;53.20;;;;;;5014999;28;20399;-71
2023/04/27 09:35:30;;;;;;;5.53;2.17;;;20.80;53.40;;;;;;5014587;28;20034;-70
2023/04/27 09:37:56;;;;;;;8.30;2.42;;;20.80;53.00;;;;;;5014586;28;20169;-71
2023/04/27 09:40:27;;;;;;;6.45;2.53;;;20.80;52.90;;;;;;5014658;28;20049;-71
2023/04/27 09:42:58;;;;;;;7.03;2.40;;;20.80;52.70;;;;;;5013963;28;20033;-71
2023/04/27 09:45:24;;;;;;;11.57;4.70;;;20.70;52.60;;;;;;5014277;28;20038;-72
2023/04/27 09:47:50;;;;;;;8.38;3.25;;;20.70;52.70;;;;;;5014604;28;20037;-69
2023/04/27 09:50:16;;;;;;;10.23;6.15;;;20.80;52.00;;;;;;5014985;28;20549;-70
2023/04/27 09:52:42;;;;;;;12.30;4.47;;;20.90;51.60;;;;;;5014652;28;20033;-75
2023/04/27 09:55:11;;;;;;;9.40;6.00;;;21.00;51.60;;;;;;5014181;28;20057;-71
2023/04/27 09:58:19;;;;;;;7.70;3.83;;;21.00;51.00;;;;;;5032782;28;20029;-70
2023/04/27 10:01:14;;;;;;;6.57;3.58;;;21.20;50.00;;;;;;5026264;28;20353;-71
2023/04/27 10:04:09;;;;;;;11.77;2.90;;;21.30;49.90;;;;;;5030451;28;20077;-71
2023/04/27 10:06:56;;;;;;;8.05;2.90;;;21.30;50.00;;;;;;5013533;28;20042;-72
2023/04/27 10:09:22;;;;;;;10.18;2.75;;;21.40;50.40;;;;;;5028721;28;20504;-74
2023/04/27 10:11:50;;;;;;;8.68;2.58;;;21.60;51.80;;;;;;5031163;28;20065;-79
2023/04/27 10:14:21;;;;;;;9.52;2.17;;;21.60;52.10;;;;;;5033508;28;20456;-77
2023/04/27 10:16:50;;;;;;;7.90;2.42;;;21.80;52.20;;;;;;5033770;28;20112;-74
2023/04/27 10:19:16;;;;;;;9.60;2.60;;;21.90;52.20;;;;;;5031837;28;20140;-78
2023/04/27 10:22:02;;;;;;;4.30;2.00;;;21.90;52.10;;;;;;5031023;28;20480;-79
2023/04/27 10:24:39;;;;;;;9.02;3.00;;;22.00;51.10;;;;;;5013740;28;20080;-73
2023/04/27 10:27:10;;;;;;;6.10;1.85;;;22.00;51.60;;;;;;5013771;28;20112;-78
2023/04/27 10:29:37;;;;;;;8.18;2.22;;;22.00;50.90;;;;;;5013473;28;20053;-78
2023/04/27 10:32:11;;;;;;;4.75;2.08;;;22.00;50.60;;;;;;5008484;28;20037;-79
2023/04/27 10:34:37;;;;;;;9.18;2.58;;;22.20;50.70;;;;;;5014531;28;20547;-78
2023/04/27 10:37:08;;;;;;;6.28;2.15;;;22.30;51.00;;;;;;5014990;28;20041;-81
2023/04/27 10:39:38;;;;;;;7.45;2.45;;;22.50;51.20;;;;;;5014633;28;20068;-80
2023/04/27 10:42:05;;;;;;;6.72;2.35;;;22.60;50.70;;;;;;5025110;28;20076;-80
2023/04/27 10:44:33;;;;;;;6.55;2.20;;;22.60;51.30;;;;;;5034031;28;20090;-79
2023/04/27 10:47:15;;;;;;;5.43;1.70;;;22.70;51.70;;;;;;5033321;28;20396;-77
2023/04/27 10:49:42;;;;;;;5.43;2.03;;;22.70;50.20;;;;;;5024382;28;20046;-78
2023/04/27 10:52:08;;;;;;;8.13;1.98;;;22.80;50.60;;;;;;5013048;28;20034;-76
2023/04/27 10:54:34;;;;;;;10.43;2.60;;;22.90;52.10;;;;;;5013217;28;20177;-77
2023/04/27 10:57:09;;;;;;;5.13;2.08;;;23.00;52.10;;;;;;5013035;28;20034;-76
2023/04/27 10:59:48;;;;;;;4.60;1.70;;;23.00;51.80;;;;;;5016858;28;20044;-74
2023/04/27 11:02:14;;;;;;;8.95;2.22;;;22.90;51.80;;;;;;5032549;28;20026;-74
2023/04/27 11:04:41;;;;;;;5.05;1.77;;;23.00;51.50;;;;;;5014726;28;20047;-75
2023/04/27 11:07:10;;;;;;;4.22;1.60;;;23.00;51.20;;;;;;5030246;28;20123;-76
2023/04/27 11:09:37;;;;;;;3.92;1.58;;;23.10;51.50;;;;;;5015285;28;20101;-77
2023/04/27 11:12:07;;;;;;;8.07;1.60;;;23.20;51.50;;;;;;5012802;28;20488;-77
2023/04/27 11:14:36;;;;;;;3.97;1.80;;;23.30;52.00;;;;;;5012798;28;20412;-79
2023/04/27 11:17:03;;;;;;;6.65;1.70;;;23.40;51.90;;;;;;5024332;28;20176;-79
2023/04/27 11:19:29;;;;;;;6.30;1.67;;;23.40;51.40;;;;;;5041157;28;20045;-78
2023/04/27 11:22:05;;;;;;;4.63;1.30;;;23.40;50.70;;;;;;5042173;28;20029;-79
2023/04/27 11:24:32;;;;;;;6.53;1.52;;;23.40;50.10;;;;;;5037816;28;20034;-79
2023/04/27 11:26:59;;;;;;;4.10;1.45;;;23.40;49.10;;;;;;5037655;28;20604;-80
2023/04/27 11:29:24;;;;;;;3.17;1.35;;;23.40;48.70;;;;;;5033378;28;20041;-79
2023/04/27 11:31:50;;;;;;;6.82;1.30;;;23.40;48.00;;;;;;5032883;28;20068;-79
2023/04/27 11:34:20;;;;;;;4.32;1.58;;;23.40;47.50;;;;;;5033191;28;20119;-79
2023/04/27 11:37:08;;;;;;;6.45;1.50;;;23.50;47.40;;;;;;5014639;28;20045;-79
2023/04/27 11:39:37;;;;;;;3.72;1.40;;;23.70;45.50;;;;;;5032455;28;20030;-80
2023/04/27 11:42:23;;;;;;;4.45;1.40;;;23.70;45.80;;;;;;5032818;28;20036;-80
2023/04/27 11:44:53;;;;;;;4.65;1.52;;;23.90;44.00;;;;;;5032590;28;20060;-79
2023/04/27 11:47:21;;;;;;;2.30;1.20;;;24.00;44.80;;;;;;5031880;28;20049;-79
2023/04/27 11:49:54;;;;;;;2.65;1.20;;;24.10;44.90;;;;;;5032599;28;20044;-80
2023/04/27 11:52:21;;;;;;;4.72;1.17;;;24.10;44.80;;;;;;5032673;28;20037;-80
2023/04/27 11:54:55;;;;;;;2.85;0.90;;;24.10;44.30;;;;;;5032380;28;20487;-80
2023/04/27 11:57:29;;;;;;;4.88;1.35;;;24.20;42.90;;;;;;5032573;28;20033;-80
2023/04/27 11:59:57;;;;;;;5.45;1.30;;;24.30;40.00;;;;;;5032570;28;20057;-80
2023/04/27 12:02:23;;;;;;;2.85;1.15;;;24.30;40.80;;;;;;5032264;28;20084;-79
2023/04/27 12:04:50;;;;;;;1.73;0.95;;;24.40;40.50;;;;;;5031950;28;20045;-79
2023/04/27 12:07:16;;;;;;;3.53;1.00;;;24.50;40.00;;;;;;5031532;28;20033;-80
2023/04/27 12:09:43;;;;;;;3.95;1.20;;;24.40;39.10;;;;;;5033701;28;20071;-79
2023/04/27 12:12:09;;;;;;;4.45;1.48;;;24.40;38.80;;;;;;5036108;28;20526;-78
2023/04/27 12:14:35;;;;;;;3.83;1.35;;;24.40;38.50;;;;;;5036095;28;20434;-81
2023/04/27 12:17:01;;;;;;;3.95;1.13;;;24.40;38.00;;;;;;5036009;28;20080;-79
2023/04/27 12:19:27;;;;;;;4.65;1.20;;;24.50;36.90;;;;;;5036143;28;20030;-80
2023/04/27 12:21:53;;;;;;;4.13;1.00;;;24.50;36.70;;;;;;5035664;28;20345;-78
2023/04/27 12:24:20;;;;;;;3.10;1.15;;;24.50;36.70;;;;;;5035825;28;20041;-78
2023/04/27 12:26:46;;;;;;;1.90;0.90;;;24.60;36.10;;;;;;5036081;28;20038;-79
2023/04/27 12:29:11;;;;;;;2.92;1.05;;;24.50;35.40;;;;;;5035922;28;20041;-77
2023/04/27 12:31:37;;;;;;;2.20;0.82;;;24.50;35.50;;;;;;5036046;28;20387;-79
2023/04/27 12:34:03;;;;;;;1.83;0.98;;;24.60;35.40;;;;;;5035966;28;20479;-79
2023/04/27 12:36:29;;;;;;;3.92;1.00;;;24.60;35.10;;;;;;5036938;28;20033;-79
2023/04/27 12:39:00;;;;;;;5.47;1.02;;;24.60;35.70;;;;;;5037685;28;20120;-79
2023/04/27 12:41:26;;;;;;;3.70;1.25;;;24.60;36.10;;;;;;5040448;28;20068;-80
2023/04/27 12:43:52;;;;;;;3.47;1.30;;;24.60;36.00;;;;;;5039524;28;20036;-78